createdAt,value
2023-01-07T00:01:44.618Z,101027.59
2023-01-07T00:04:29.967Z,101037.97
2023-01-07T00:07:15.262Z,101026.69
2023-01-07T00:10:00.234Z,101028.44
2023-01-07T00:12:45.509Z,101025.91
2023-01-07T00:15:30.954Z,101022.41
2023-01-07T00:18:16.129Z,101019.84
2023-01-07T00:21:04.073Z,101018.16
2023-01-07T00:23:49.541Z,101020.75
2023-01-07T00:26:36.384Z,101023.41
2023-01-07T00:29:21.517Z,101020.81
2023-01-07T00:32:06.789Z,101018.25
2023-01-07T00:34:52.150Z,101019.03
2023-01-07T00:37:37.564Z,101017.47
2023-01-07T00:40:23.234Z,101018.25
2023-01-07T00:43:08.361Z,101015.66
2023-01-07T00:45:53.611Z,101007.91
2023-01-07T00:48:38.683Z,101004.53
2023-01-07T00:51:25.344Z,101003.59
2023-01-07T00:54:10.399Z,101001.91
2023-01-07T00:56:55.682Z,100989.84
2023-01-07T00:59:41.073Z,100999.28
2023-01-07T01:02:26.471Z,101003.44
2023-01-07T01:05:12.535Z,100990.56
2023-01-07T01:07:58.168Z,100991.41
2023-01-07T01:10:43.323Z,100986.16
2023-01-07T01:13:28.508Z,100993.00
2023-01-07T01:16:16.301Z,100987.03
2023-01-07T01:19:01.421Z,100988.78
2023-01-07T01:21:46.579Z,100991.53
2023-01-07T01:24:31.763Z,100987.25
2023-01-07T01:27:17.212Z,100981.28
2023-01-07T01:30:02.171Z,100983.81
2023-01-07T01:32:47.455Z,100983.09
2023-01-07T01:35:32.452Z,100983.97
2023-01-07T01:38:17.392Z,100991.56
2023-01-07T01:41:02.892Z,100984.69
2023-01-07T01:43:48.523Z,100989.91
2023-01-07T01:46:37.995Z,100991.69
2023-01-07T01:49:40.699Z,100993.31
2023-01-07T01:52:35.718Z,100990.69
2023-01-07T01:55:25.516Z,100979.59
2023-01-07T01:58:14.712Z,100980.50
2023-01-07T02:01:00.258Z,100976.22
2023-01-07T02:03:47.632Z,100979.53
2023-01-07T02:06:36.268Z,100976.88
2023-01-07T02:09:21.109Z,100970.88
2023-01-07T02:12:18.384Z,100978.53
2023-01-07T02:15:12.080Z,100971.75
2023-01-07T02:18:09.212Z,100969.19
2023-01-07T02:21:09.400Z,100966.69
2023-01-07T02:24:19.327Z,100960.66
2023-01-07T02:27:21.065Z,100957.06
2023-01-07T02:30:48.514Z,100960.50
2023-01-07T02:34:04.962Z,100954.47
2023-01-07T02:37:14.702Z,100951.97
2023-01-07T02:40:08.770Z,100951.09
2023-01-07T02:43:13.571Z,100945.94
2023-01-07T02:46:13.876Z,100946.00
2023-01-07T02:49:07.516Z,100929.72
2023-01-07T02:51:52.705Z,100919.34
2023-01-07T02:54:37.550Z,100920.22
2023-01-07T02:57:34.640Z,100907.44
2023-01-07T03:00:57.534Z,100915.13
2023-01-07T03:04:11.658Z,100907.44
2023-01-07T03:07:18.309Z,100906.63
2023-01-07T03:10:15.864Z,100898.09
2023-01-07T03:13:19.538Z,100901.41
2023-01-07T03:16:32.127Z,100891.94
2023-01-07T03:19:34.441Z,100888.50
2023-01-07T03:22:23.475Z,100890.22
2023-01-07T03:25:09.434Z,100883.91
2023-01-07T03:27:57.041Z,100887.22
2023-01-07T03:30:44.025Z,100877.81
2023-01-07T03:33:52.939Z,100881.13
2023-01-07T03:36:45.961Z,100881.09
2023-01-07T03:39:34.133Z,100870.72
2023-01-07T03:42:24.610Z,100874.28
2023-01-07T03:45:16.260Z,100863.16
2023-01-07T03:48:01.841Z,100851.19
2023-01-07T03:50:47.194Z,100852.13
2023-01-07T03:53:32.589Z,100855.38
2023-01-07T03:56:17.869Z,100858.66
2023-01-07T03:59:02.982Z,100850.78
2023-01-07T04:01:48.343Z,100849.19
2023-01-07T04:04:33.695Z,100846.34
2023-01-07T04:07:19.387Z,100844.69
2023-01-07T04:10:06.855Z,100838.59
2023-01-07T04:12:52.240Z,100833.44
2023-01-07T04:15:37.831Z,100833.34
2023-01-07T04:18:23.130Z,100819.56
2023-01-07T04:21:08.554Z,100817.81
2023-01-07T04:23:53.496Z,100821.19
2023-01-07T04:26:38.526Z,100814.50
2023-01-07T04:29:23.897Z,100811.78
2023-01-07T04:32:08.682Z,100810.03
2023-01-07T04:34:53.594Z,100809.16
2023-01-07T04:37:38.551Z,100805.78
2023-01-07T04:40:24.078Z,100803.38
2023-01-07T04:43:09.825Z,100807.63
2023-01-07T04:45:54.692Z,100792.00
2023-01-07T04:48:39.794Z,100793.84
2023-01-07T04:51:24.598Z,100789.41
2023-01-07T04:54:10.327Z,100784.25
2023-01-07T04:56:55.293Z,100776.66
2023-01-07T04:59:40.682Z,100792.00
2023-01-07T05:02:25.530Z,100792.16
2023-01-07T05:05:10.412Z,100785.25
2023-01-07T05:07:55.611Z,100780.16
2023-01-07T05:10:40.508Z,100775.00
2023-01-07T05:13:25.331Z,100775.78
2023-01-07T05:16:10.819Z,100776.66
2023-01-07T05:18:55.868Z,100774.00
2023-01-07T05:21:40.942Z,100777.59
2023-01-07T05:24:25.696Z,100770.63
2023-01-07T05:27:10.629Z,100765.28
2023-01-07T05:29:55.383Z,100770.63
2023-01-07T05:32:40.414Z,100760.25
2023-01-07T05:35:25.862Z,100753.19
2023-01-07T05:38:11.212Z,100764.34
2023-01-07T05:40:56.145Z,100765.97
2023-01-07T05:43:41.097Z,100760.97
2023-01-07T05:46:26.623Z,100760.28
2023-01-07T05:49:11.422Z,100765.47
2023-01-07T05:51:56.347Z,100755.94
2023-01-07T05:54:41.409Z,100751.66
2023-01-07T05:57:26.336Z,100757.66
2023-01-07T06:00:11.912Z,100757.63
2023-01-07T06:02:57.003Z,100754.94
2023-01-07T06:05:41.957Z,100747.25
2023-01-07T06:08:26.635Z,100749.72
2023-01-07T06:11:11.919Z,100748.78
2023-01-07T06:13:56.883Z,100759.19
2023-01-07T06:16:41.719Z,100748.91
2023-01-07T06:19:26.676Z,100751.41
2023-01-07T06:22:11.648Z,100742.78
2023-01-07T06:24:56.929Z,100731.56
2023-01-07T06:27:41.835Z,100738.38
2023-01-07T06:30:26.936Z,100744.22
2023-01-07T06:33:12.439Z,100740.91
2023-01-07T06:35:57.391Z,100738.38
2023-01-07T06:38:42.389Z,100748.50
2023-01-07T06:41:27.155Z,100734.75
2023-01-07T06:44:12.025Z,100739.03
2023-01-07T06:46:56.758Z,100738.91
2023-01-07T06:49:41.715Z,100733.66
2023-01-07T06:52:27.060Z,100742.19
2023-01-07T06:55:12.496Z,100746.50
2023-01-07T06:57:58.014Z,100728.44
2023-01-07T07:00:43.608Z,100730.91
2023-01-07T07:03:28.586Z,100735.19
2023-01-07T07:06:13.606Z,100736.88
2023-01-07T07:08:58.959Z,100736.03
2023-01-07T07:11:44.250Z,100730.81
2023-01-07T07:14:29.600Z,100737.69
2023-01-07T07:17:15.150Z,100729.16
2023-01-07T07:20:00.652Z,100735.25
2023-01-07T07:22:47.026Z,100729.16
2023-01-07T07:25:32.136Z,100737.75
2023-01-07T07:28:17.672Z,100725.66
2023-01-07T07:31:03.537Z,100725.66
2023-01-07T07:33:48.855Z,100727.44
2023-01-07T07:36:34.201Z,100715.47
2023-01-07T07:39:19.467Z,100715.56
2023-01-07T07:42:05.169Z,100710.53
2023-01-07T07:44:50.568Z,100711.59
2023-01-07T07:47:35.569Z,100702.16
2023-01-07T07:50:20.840Z,100697.97
2023-01-07T07:53:06.167Z,100689.56
2023-01-07T07:55:51.549Z,100691.41
2023-01-07T07:58:36.615Z,100682.78
2023-01-07T08:01:21.939Z,100681.97
2023-01-07T08:04:07.221Z,100675.94
2023-01-07T08:06:52.574Z,100674.38
2023-01-07T08:09:37.932Z,100666.59
2023-01-07T08:12:22.843Z,100671.09
2023-01-07T08:15:09.051Z,100663.53
2023-01-07T08:18:03.204Z,100665.22
2023-01-07T08:20:48.656Z,100661.88
2023-01-07T08:23:34.450Z,100650.72
2023-01-07T08:26:19.444Z,100650.78
2023-01-07T08:29:04.709Z,100643.09
2023-01-07T08:31:50.079Z,100635.31
2023-01-07T08:34:35.468Z,100637.88
2023-01-07T08:37:20.803Z,100637.06
2023-01-07T08:40:06.712Z,100637.13
2023-01-07T08:42:52.036Z,100628.59
2023-01-07T08:45:37.750Z,100622.56
2023-01-07T08:48:23.377Z,100623.47
2023-01-07T08:51:08.499Z,100626.84
2023-01-07T08:53:54.674Z,100621.75
2023-01-07T08:56:39.899Z,100616.59
2023-01-07T08:59:25.149Z,100625.25
2023-01-07T09:02:15.084Z,100623.53
2023-01-07T09:05:00.274Z,100612.44
2023-01-07T09:07:45.754Z,100621.94
2023-01-07T09:10:31.244Z,100616.81
2023-01-07T09:13:16.600Z,100614.28
2023-01-07T09:16:01.927Z,100605.72
2023-01-07T09:18:47.231Z,100605.72
2023-01-07T09:21:32.571Z,100598.91
2023-01-07T09:24:18.022Z,100601.56
2023-01-07T09:27:03.016Z,100602.50
2023-01-07T09:29:48.341Z,100604.28
2023-01-07T09:32:33.563Z,100592.28
2023-01-07T09:35:18.960Z,100587.16
2023-01-07T09:38:04.262Z,100589.75
2023-01-07T09:40:50.006Z,100592.31
2023-01-07T09:43:59.865Z,100588.94
2023-01-07T09:46:45.722Z,100585.59
2023-01-07T09:49:31.452Z,100575.25
2023-01-07T09:52:29.623Z,100574.47
2023-01-07T09:55:20.937Z,100569.31
2023-01-07T09:58:08.344Z,100576.16
2023-01-07T10:01:02.688Z,100580.56
2023-01-07T10:03:54.677Z,100570.28
2023-01-07T10:07:04.788Z,100569.41
2023-01-07T10:10:03.784Z,100563.47
2023-01-07T10:12:52.904Z,100560.94
2023-01-07T10:15:53.445Z,100557.53
2023-01-07T10:19:16.768Z,100557.53
2023-01-07T10:22:15.530Z,100550.66
2023-01-07T10:25:05.204Z,100537.69
2023-01-07T10:27:54.106Z,100543.84
2023-01-07T10:30:44.562Z,100532.69
2023-01-07T10:33:33.089Z,100527.50
2023-01-07T10:36:24.046Z,100521.56
2023-01-07T10:39:34.463Z,100521.63
2023-01-07T10:42:32.593Z,100511.25
2023-01-07T10:45:29.853Z,100505.28
2023-01-07T10:48:48.963Z,100490.59
2023-01-07T10:51:45.698Z,100486.34
2023-01-07T10:54:33.623Z,100488.09
2023-01-07T10:57:26.427Z,100483.75
2023-01-07T11:00:15.696Z,100471.81
2023-01-07T11:03:01.265Z,100463.22
2023-01-07T11:05:53.705Z,100452.00
2023-01-07T11:08:41.343Z,100457.94
2023-01-07T11:11:26.256Z,100458.84
2023-01-07T11:14:19.447Z,100450.22
2023-01-07T11:17:10.346Z,100446.75
2023-01-07T11:19:55.868Z,100438.97
2023-01-07T11:22:41.227Z,100432.16
2023-01-07T11:25:29.135Z,100417.53
2023-01-07T11:28:20.315Z,100412.31
2023-01-07T11:31:05.998Z,100400.25
2023-01-07T11:34:03.252Z,100402.81
2023-01-07T11:36:50.097Z,100393.34
2023-01-07T11:39:36.352Z,100400.31
2023-01-07T11:42:21.747Z,100389.94
2023-01-07T11:45:17.821Z,100376.06
2023-01-07T11:48:05.959Z,100360.63
2023-01-07T11:50:56.270Z,100338.25
2023-01-07T11:53:50.664Z,100331.38
2023-01-07T11:56:35.964Z,100324.50
2023-01-07T11:59:21.298Z,100308.25
2023-01-07T12:02:24.096Z,100302.25
2023-01-07T12:05:21.936Z,100308.22
2023-01-07T12:08:18.403Z,100310.84
2023-01-07T12:11:09.980Z,100310.88
2023-01-07T12:13:54.961Z,100294.38
2023-01-07T12:16:41.255Z,100286.59
2023-01-07T12:19:29.712Z,100265.91
2023-01-07T12:22:26.596Z,100264.19
2023-01-07T12:25:56.675Z,100244.41
2023-01-07T12:29:08.566Z,100240.13
2023-01-07T12:32:07.527Z,100227.16
2023-01-07T12:35:15.904Z,100215.09
2023-01-07T12:38:23.906Z,100209.91
2023-01-07T12:41:16.263Z,100207.41
2023-01-07T12:44:04.383Z,100216.06
2023-01-07T12:47:31.249Z,100187.84
2023-01-07T12:50:24.040Z,100160.31
2023-01-07T12:53:36.349Z,100140.50
2023-01-07T12:56:34.251Z,100108.59
2023-01-07T12:59:47.093Z,100100.84
2023-01-07T13:02:44.194Z,100100.66
2023-01-07T13:05:47.956Z,100117.81
2023-01-07T13:08:57.194Z,100135.03
2023-01-07T13:11:48.286Z,100135.88
2023-01-07T13:14:40.133Z,100148.81
2023-01-07T13:17:31.196Z,100143.63
2023-01-07T13:20:21.771Z,100130.69
2023-01-07T13:23:16.464Z,100125.50
2023-01-07T13:26:07.824Z,100117.75
2023-01-07T13:29:04.871Z,100109.13
2023-01-07T13:32:11.690Z,100098.75
2023-01-07T13:35:34.500Z,100089.28
2023-01-07T13:38:33.659Z,100057.34
2023-01-07T13:41:40.362Z,100047.00
2023-01-07T13:45:03.313Z,100044.38
2023-01-07T13:47:52.031Z,100045.22
2023-01-07T13:50:41.658Z,100043.50
2023-01-07T13:53:27.046Z,100046.09
2023-01-07T13:56:18.537Z,100044.34
2023-01-07T13:59:04.594Z,100032.28
2023-01-07T14:02:24.878Z,100033.13
2023-01-07T14:05:09.850Z,100021.94
2023-01-07T14:07:58.274Z,100028.00
2023-01-07T14:10:52.915Z,100028.81
2023-01-07T14:13:47.608Z,100022.78
2023-01-07T14:16:51.207Z,100015.00
2023-01-07T14:20:08.964Z,100008.09
2023-01-07T14:22:57.193Z,99981.41
2023-01-07T14:26:03.591Z,99990.84
2023-01-07T14:29:10.899Z,99971.84
2023-01-07T14:32:22.579Z,99956.34
2023-01-07T14:35:23.701Z,99962.34
2023-01-07T14:38:33.549Z,99964.91
2023-01-07T14:41:18.958Z,99982.09
2023-01-07T14:44:24.803Z,99983.78
2023-01-07T14:47:14.019Z,99970.00
2023-01-07T14:50:05.645Z,99978.53
2023-01-07T14:53:15.907Z,99969.91
2023-01-07T14:56:38.928Z,99988.81
2023-01-07T14:59:31.824Z,99981.16
2023-01-07T15:02:41.888Z,99976.97
2023-01-07T15:05:39.085Z,99966.56
2023-01-07T15:08:28.105Z,99969.13
2023-01-07T15:11:24.891Z,99964.72
2023-01-07T15:14:24.300Z,99990.47
2023-01-07T15:17:12.773Z,99990.44
2023-01-07T15:19:58.659Z,100006.75
2023-01-07T15:22:43.530Z,100011.84
2023-01-07T15:25:50.441Z,100022.19
2023-01-07T15:28:35.434Z,100005.81
2023-01-07T15:31:32.055Z,100007.44
2023-01-07T15:34:18.248Z,100009.94
2023-01-07T15:37:06.419Z,100009.06
2023-01-07T15:39:56.523Z,100015.88
2023-01-07T15:42:44.660Z,100017.56
2023-01-07T15:45:29.686Z,100026.16
2023-01-07T15:48:14.531Z,100032.19
2023-01-07T15:51:00.301Z,100025.34
2023-01-07T15:53:53.952Z,100031.31
2023-01-07T15:56:39.226Z,100017.50
2023-01-07T15:59:34.046Z,100027.78
2023-01-07T16:02:29.967Z,100018.25
2023-01-07T16:05:17.636Z,100020.78
2023-01-07T16:08:03.302Z,100018.13
2023-01-07T16:11:23.607Z,100014.66
2023-01-07T16:14:20.251Z,100012.91
2023-01-07T16:17:13.228Z,100007.69
2023-01-07T16:20:37.022Z,100011.97
2023-01-07T16:23:24.002Z,100020.47
2023-01-07T16:26:12.362Z,100019.53
2023-01-07T16:29:01.980Z,100017.81
2023-01-07T16:31:47.853Z,100017.66
2023-01-07T16:34:33.184Z,100008.13
2023-01-07T16:37:18.160Z,100020.97
2023-01-07T16:40:03.540Z,100020.91
2023-01-07T16:42:49.391Z,100010.53
2023-01-07T16:45:36.711Z,100021.66
2023-01-07T16:48:22.215Z,100013.00
2023-01-07T16:51:33.911Z,100012.91
2023-01-07T16:54:25.365Z,100020.56
2023-01-07T16:57:10.207Z,100023.06
2023-01-07T16:59:57.871Z,100020.41
2023-01-07T17:02:53.028Z,100022.13
2023-01-07T17:05:38.670Z,100017.81
2023-01-07T17:08:25.154Z,100018.56
2023-01-07T17:11:22.643Z,100015.03
2023-01-07T17:14:43.688Z,100021.81
2023-01-07T17:17:31.474Z,100019.06
2023-01-07T17:20:20.012Z,100019.03
2023-01-07T17:23:24.967Z,100022.47
2023-01-07T17:26:28.182Z,100018.94
2023-01-07T17:29:16.451Z,100012.00
2023-01-07T17:32:03.781Z,100024.94
2023-01-07T17:34:48.969Z,100004.19
2023-01-07T17:37:34.838Z,100018.69
2023-01-07T17:40:20.676Z,100022.13
2023-01-07T17:43:05.671Z,100033.16
2023-01-07T17:45:51.118Z,100020.56
2023-01-07T17:48:36.449Z,100016.34
2023-01-07T17:51:22.035Z,100008.56
2023-01-07T17:54:07.665Z,100014.59
2023-01-07T17:56:53.192Z,100018.88
2023-01-07T17:59:38.123Z,100015.44
2023-01-07T18:02:27.148Z,100005.16
2023-01-07T18:05:21.229Z,100011.19
2023-01-07T18:08:06.578Z,100010.25
2023-01-07T18:10:53.080Z,100008.63
2023-01-07T18:13:38.142Z,100001.81
2023-01-07T18:16:23.492Z,100000.13
2023-01-07T18:19:12.913Z,100000.03
2023-01-07T18:21:57.968Z,99999.22
2023-01-07T18:24:43.194Z,100001.94
2023-01-07T18:27:28.476Z,99986.28
2023-01-07T18:30:17.033Z,99992.31
2023-01-07T18:33:02.162Z,99983.13
2023-01-07T18:35:47.799Z,99977.19
2023-01-07T18:38:33.682Z,99975.47
2023-01-07T18:41:18.783Z,99973.72
2023-01-07T18:44:03.734Z,99966.06
2023-01-07T18:46:48.767Z,99967.72
2023-01-07T18:49:33.942Z,99979.66
2023-01-07T18:52:19.134Z,99970.97
2023-01-07T18:55:04.133Z,99976.00
2023-01-07T18:57:49.353Z,99977.56
2023-01-07T19:00:34.521Z,99977.72
2023-01-07T19:03:19.837Z,99970.88
2023-01-07T19:06:07.440Z,99969.16
2023-01-07T19:08:52.575Z,99965.69
2023-01-07T19:11:38.014Z,99958.84
2023-01-07T19:14:23.530Z,99961.41
2023-01-07T19:17:09.167Z,99954.47
2023-01-07T19:19:54.412Z,99948.50
2023-01-07T19:22:39.801Z,99936.56
2023-01-07T19:25:24.866Z,99926.28
2023-01-07T19:28:11.109Z,99926.28
2023-01-07T19:30:56.387Z,99912.50
2023-01-07T19:33:41.776Z,99909.84
2023-01-07T19:36:27.104Z,99896.91
2023-01-07T19:39:15.299Z,99890.94
2023-01-07T19:42:00.583Z,99887.50
2023-01-07T19:44:46.111Z,99876.25
2023-01-07T19:47:31.353Z,99864.16
2023-01-07T19:50:18.070Z,99861.66
2023-01-07T19:53:03.464Z,99850.47
2023-01-07T19:55:49.356Z,99852.41
2023-01-07T19:58:34.769Z,99849.81
2023-01-07T20:01:20.626Z,99833.47
2023-01-07T20:04:08.315Z,99828.31
2023-01-07T20:06:53.581Z,99817.06
2023-01-07T20:09:39.059Z,99822.25
2023-01-07T20:12:24.297Z,99831.63
2023-01-07T20:15:09.858Z,99842.81
2023-01-07T20:17:55.082Z,99848.88
2023-01-07T20:20:40.522Z,99854.06
2023-01-07T20:23:27.305Z,99852.34
2023-01-07T20:26:15.198Z,99858.41
2023-01-07T20:29:01.179Z,99864.47
2023-01-07T20:31:46.833Z,99860.31
2023-01-07T20:34:32.074Z,99846.56
2023-01-07T20:37:17.061Z,99832.78
2023-01-07T20:40:03.170Z,99816.50
2023-01-07T20:42:48.253Z,99821.75
2023-01-07T20:45:38.009Z,99849.25
2023-01-07T20:48:23.478Z,99854.56
2023-01-07T20:51:09.763Z,99835.75
2023-01-07T20:53:54.922Z,99837.50
2023-01-07T20:56:39.855Z,99836.69
2023-01-07T20:59:25.016Z,99845.47
2023-01-07T21:02:15.565Z,99835.31
2023-01-07T21:05:00.753Z,99819.88
2023-01-07T21:07:49.144Z,99826.72
2023-01-07T21:10:37.412Z,99815.56
2023-01-07T21:13:23.169Z,99792.44
2023-01-07T21:16:09.457Z,99796.78
2023-01-07T21:18:55.220Z,99790.75
2023-01-07T21:21:40.425Z,99795.06
2023-01-07T21:24:26.231Z,99800.22
2023-01-07T21:27:11.051Z,99803.72
2023-01-07T21:29:55.855Z,99801.16
2023-01-07T21:32:41.236Z,99805.41
2023-01-07T21:35:26.260Z,99796.00
2023-01-07T21:38:11.362Z,99789.16
2023-01-07T21:40:56.244Z,99785.69
2023-01-07T21:43:41.816Z,99773.72
2023-01-07T21:46:26.872Z,99771.25
2023-01-07T21:49:11.859Z,99772.13
2023-01-07T21:51:58.281Z,99763.56
2023-01-07T21:54:43.254Z,99738.66
2023-01-07T21:57:28.746Z,99716.38
2023-01-07T22:00:14.300Z,99724.13
2023-01-07T22:02:59.553Z,99711.22
2023-01-07T22:05:44.595Z,99704.34
2023-01-07T22:08:29.832Z,99711.25
2023-01-07T22:11:17.146Z,99716.44
2023-01-07T22:14:02.545Z,99705.25
2023-01-07T22:16:49.220Z,99713.03
2023-01-07T22:19:34.455Z,99714.72
2023-01-07T22:22:19.895Z,99727.56
2023-01-07T22:25:05.821Z,99770.53
2023-01-07T22:27:56.261Z,99786.00
2023-01-07T22:30:45.092Z,99793.69
2023-01-07T22:33:30.155Z,99808.31
2023-01-07T22:36:20.786Z,99808.31
2023-01-07T22:39:11.225Z,99792.91
2023-01-07T22:42:05.001Z,99786.94
2023-01-07T22:44:55.222Z,99775.72
2023-01-07T22:47:43.505Z,99776.66
2023-01-07T22:50:28.301Z,99764.66
2023-01-07T22:53:13.818Z,99743.97
2023-01-07T22:56:00.255Z,99756.84
2023-01-07T22:58:45.398Z,99752.56
2023-01-07T23:01:30.894Z,99752.56
2023-01-07T23:04:16.184Z,99747.38
2023-01-07T23:07:01.626Z,99752.56
2023-01-07T23:09:46.951Z,99767.13
2023-01-07T23:12:32.455Z,99756.78
2023-01-07T23:15:17.701Z,99759.38
2023-01-07T23:18:04.574Z,99753.41
2023-01-07T23:20:50.066Z,99736.19
2023-01-07T23:23:35.517Z,99737.13
2023-01-07T23:26:20.925Z,99741.41
2023-01-07T23:29:06.584Z,99734.50
2023-01-07T23:31:51.905Z,99741.41
2023-01-07T23:34:37.324Z,99745.69
2023-01-07T23:37:22.712Z,99737.94
2023-01-07T23:40:09.286Z,99738.81
2023-01-07T23:42:56.222Z,99742.25
2023-01-07T23:45:42.428Z,99758.63
2023-01-07T23:48:29.658Z,99731.84
2023-01-07T23:51:18.420Z,99736.19
2023-01-07T23:54:03.997Z,99738.75
2023-01-07T23:56:49.755Z,99741.38
2023-01-07T23:59:35.348Z,99757.75
